Flight Track Log - Related Links

Times and Time Zones

All times are in EDT time to prevent confusion due to time zone crossing. See the KAP5 flight status page for this flight to view local times or setup timezone preferences in your user account.

Time Position Orientation Groundspeed Altitude Reporting Facility
EDT Latitude Longitude Course Direction KTS MPH feet Rate Location/Type
Mon 05:31:27 PM 42.3667 -71.0167 246° West 114 131 500  Level KA90
Mon 05:32:39 PM 42.3500 -71.0667 246° West 108 124 1,700 902 Climbing KA90
Mon 05:33:40 PM 42.3333 -71.1000 236° Southwest 119 137 2,500 694 Climbing KA90
Mon 05:34:40 PM 42.3333 -71.1500 270° West 114 131 3,100 600 Climbing KA90
Mon 05:35:40 PM 42.3333 -71.1833 270° West 115 132 3,700 650 Climbing KA90
Mon 05:36:40 PM 42.3333 -71.2333 270° West 115 132 4,400 632 Climbing KA90
Mon 05:37:34 PM 42.3167 -71.2667 236° Southwest 118 136 4,900 579 Climbing KA90
Mon 05:38:34 PM 42.3167 -71.3167 270° West 119 137 5,500 500 Climbing KA90
Mon 05:39:34 PM 42.3167 -71.3667 270° West 123 142 5,900 450 Climbing KA90
Mon 05:40:34 PM 42.3167 -71.4167 270° West 133 153 6,400 450 Climbing KA90
Mon 05:41:34 PM 42.3000 -71.4667 246° West 136 157 6,800 470 Climbing KA90
Mon 05:42:29 PM 42.2986 -71.5111 268° West 135 155 7,300 470 Climbing Boston Center
Mon 05:43:29 PM 42.2908 -71.5617 258° West 138 159 7,700 397 Climbing Boston Center
Mon 05:44:30 PM 42.2869 -71.6178 265° West 140 161 8,100 198 Climbing Boston Center
Mon 05:45:30 PM 42.2811 -71.6742 262° West 159 183 8,100  Level Boston Center
Mon 05:46:31 PM 42.2772 -71.7358 265° West 172 198 8,100 -50 Level Boston Center
Mon 05:47:31 PM 42.2714 -71.8003 263° West 173 199 8,000 -50 Descending Boston Center
Mon 05:48:31 PM 42.2719 -71.8650 271° West 173 199 8,000 48 Level Boston Center
Mon 05:49:35 PM 42.2722 -71.9350 270° West 169 194 8,100  Climbing Boston Center
Mon 05:50:35 PM 42.2767 -71.9967 276° West 171 197 8,000  Descending Boston Center
Mon 05:51:36 PM 42.2789 -72.0614 273° West 173 199 8,100 50 Climbing Boston Center
Mon 05:52:35 PM 42.2958 -72.1200 291° West 177 204 8,100  Level Boston Center
Mon 05:53:38 PM 42.3147 -72.1817 293° West 176 203 8,100 -48 Level Boston Center
Mon 05:54:39 PM 42.3314 -72.2436 290° West 170 196 8,000  Descending Boston Center
Mon 05:55:40 PM 42.3483 -72.3108 289° West 172 198 8,100 50 Climbing Boston Center
Mon 05:56:40 PM 42.3650 -72.3697 291° West 173 199 8,100 -50 Level Boston Center
Mon 05:57:41 PM 42.3794 -72.4289 288° West 172 198 8,000 -50 Descending Boston Center
Mon 05:58:41 PM 42.3961 -72.4908 290° West 173 199 8,000  Level Boston Center
Mon 05:59:42 PM 42.4150 -72.5497 293° West 170 196 8,000  Level Boston Center
Mon 06:00:42 PM 42.4294 -72.6117 288° West 170 196 8,000  Level Boston Center
Mon 06:02:14 PM 42.4583 -72.7017 294° West 170 196 8,000  Level Boston Center
Mon 06:03:15 PM 42.4728 -72.7639 287° West 171 197 8,000  Level Boston Center
Mon 06:04:16 PM 42.4914 -72.8258 292° West 172 198 8,000  Level Boston Center
Mon 06:05:17 PM 42.5058 -72.8878 288° West 173 199 8,000  Level Boston Center
Mon 06:06:17 PM 42.5222 -72.9472 291° West 171 197 8,000  Level Boston Center
Mon 06:07:18 PM 42.5406 -73.0094 292° West 172 198 8,000  Level Boston Center
Mon 06:08:19 PM 42.5569 -73.0686 291° West 171 197 8,000 50 Level Boston Center
Mon 06:09:17 PM 42.5714 -73.1308 288° West 168 193 8,100  Climbing Boston Center
Mon 06:10:18 PM 42.5897 -73.1931 292° West 171 197 8,000 -295 Descending Boston Center
Mon 06:11:19 PM 42.6058 -73.2608 288° West 182 209 7,500 -595 Descending Boston Center
Mon 06:12:19 PM 42.6261 -73.3261 293° West 195 224 6,800 -694 Descending Boston Center
Mon 06:13:20 PM 42.6444 -73.3969 289° West 195 224 6,100 -730 Descending Boston Center
Mon 06:14:14 PM 42.6606 -73.4564 290° West 191 220 5,400 -763 Descending Boston Center
Mon 06:15:18 PM 42.6786 -73.5244 290° West 184 212 4,600 -864 Descending Boston Center
Mon 06:16:19 PM 42.7011 -73.5842 297° West 187 215 3,600 -893 Descending Boston Center
Mon 06:17:19 PM 42.7275 -73.6497 299° West 186 214 2,800 -900 Descending Boston Center
Mon 06:18:19 PM 42.7519 -73.7039 302° West 166 191 1,800 -843 Descending Boston Center
Mon 06:19:20 PM 42.7514 -73.7492 269° West 92 106 1,100 -689 Descending Boston Center
Mon 06:21:00 PM 42.7333 -73.8000 288° West  Level FlightAware Approximate
Mon 06:28:00 PM 42.7491 -73.8020 288° West  Level Estimated
Mon 06:29:00 PM 42.7491 -73.8020 288° West  Level Estimated
Mon 06:30:00 PM 42.7491 -73.8020 288° West  Level Estimated

Login

Don't have an account? Register now (free) for customized features, flight alerts, and more!